createdAt,value
2023-04-30T00:01:08.678Z,69.40
2023-04-30T00:03:30.372Z,69.51
2023-04-30T00:05:52.087Z,69.59
2023-04-30T00:08:13.798Z,69.28
2023-04-30T00:10:35.588Z,69.15
2023-04-30T00:12:57.273Z,69.77
2023-04-30T00:15:19.101Z,69.42
2023-04-30T00:17:41.282Z,69.40
2023-04-30T00:20:03.425Z,69.33
2023-04-30T00:22:25.347Z,69.80
2023-04-30T00:24:47.043Z,69.70
2023-04-30T00:27:08.671Z,69.79
2023-04-30T00:29:30.533Z,69.70
2023-04-30T00:31:52.810Z,69.54
2023-04-30T00:34:15.152Z,69.68
2023-04-30T00:36:36.888Z,69.52
2023-04-30T00:38:58.762Z,69.86
2023-04-30T00:41:22.606Z,69.56
2023-04-30T00:43:44.410Z,69.71
2023-04-30T00:46:06.778Z,69.85
2023-04-30T00:48:29.262Z,69.95
2023-04-30T00:50:51.029Z,69.63
2023-04-30T00:53:13.174Z,69.85
2023-04-30T00:55:35.527Z,70.07
2023-04-30T00:57:57.284Z,69.99
2023-04-30T01:00:19.380Z,70.25
2023-04-30T01:02:41.335Z,70.06
2023-04-30T01:05:04.272Z,70.01
2023-04-30T01:07:28.499Z,70.29
2023-04-30T01:09:50.252Z,69.97
2023-04-30T01:12:44.692Z,70.02
2023-04-30T01:15:22.788Z,69.73
2023-04-30T01:17:59.470Z,69.89
2023-04-30T01:20:22.874Z,69.87
2023-04-30T01:22:58.217Z,69.84
2023-04-30T01:25:40.627Z,69.91
2023-04-30T01:28:04.180Z,69.92
2023-04-30T01:30:27.104Z,69.93
2023-04-30T01:32:48.742Z,70.33
2023-04-30T01:35:10.643Z,70.48
2023-04-30T01:38:12.134Z,70.71
2023-04-30T01:40:44.568Z,70.79
2023-04-30T01:43:23.434Z,70.62
2023-04-30T01:46:27.583Z,70.71
2023-04-30T01:48:58.443Z,70.55
2023-04-30T01:51:43.904Z,70.42
2023-04-30T01:54:43.155Z,70.05
2023-04-30T01:57:12.507Z,70.79
2023-04-30T01:59:39.903Z,71.05
2023-04-30T02:02:02.579Z,71.49
2023-04-30T02:04:24.252Z,71.02
2023-04-30T02:06:46.070Z,70.63
2023-04-30T02:09:07.792Z,70.79
2023-04-30T02:11:29.903Z,70.85
2023-04-30T02:13:51.653Z,71.21
2023-04-30T02:16:13.407Z,71.37
2023-04-30T02:18:35.078Z,71.48
2023-04-30T02:20:56.729Z,71.13
2023-04-30T02:23:18.418Z,71.47
2023-04-30T02:25:40.180Z,71.44
2023-04-30T02:28:01.996Z,71.56
2023-04-30T02:30:23.665Z,71.41
2023-04-30T02:32:45.341Z,71.24
2023-04-30T02:35:07.447Z,71.48
2023-04-30T02:37:29.157Z,71.39
2023-04-30T02:39:52.128Z,71.46
2023-04-30T02:42:14.376Z,71.59
2023-04-30T02:44:35.981Z,71.02
2023-04-30T02:46:59.574Z,71.66
2023-04-30T02:49:21.333Z,71.73
2023-04-30T02:51:43.105Z,71.58
2023-04-30T02:54:04.734Z,71.77
2023-04-30T02:56:26.484Z,71.91
2023-04-30T02:58:48.451Z,71.89
2023-04-30T03:01:10.224Z,71.70
2023-04-30T03:03:32.382Z,71.57
2023-04-30T03:05:56.687Z,71.65
2023-04-30T03:08:18.364Z,71.97
2023-04-30T03:10:40.001Z,72.09
2023-04-30T03:13:01.639Z,71.64
2023-04-30T03:15:23.248Z,72.08
2023-04-30T03:17:46.278Z,72.50
2023-04-30T03:20:08.846Z,72.11
2023-04-30T03:22:30.717Z,72.16
2023-04-30T03:24:52.475Z,72.14
2023-04-30T03:27:14.298Z,72.38
2023-04-30T03:29:36.263Z,72.63
2023-04-30T03:31:57.988Z,72.83
2023-04-30T03:34:19.671Z,73.03
2023-04-30T03:36:41.674Z,72.78
2023-04-30T03:39:04.120Z,72.84
2023-04-30T03:41:25.961Z,72.98
2023-04-30T03:43:47.952Z,73.10
2023-04-30T03:46:09.745Z,73.52
2023-04-30T03:48:31.463Z,72.69
2023-04-30T03:50:53.145Z,72.96
2023-04-30T03:53:14.806Z,73.26
2023-04-30T03:55:37.035Z,73.35
2023-04-30T03:57:58.841Z,73.05
2023-04-30T04:00:21.872Z,73.13
2023-04-30T04:02:47.061Z,73.04
2023-04-30T04:05:09.208Z,73.24
2023-04-30T04:07:30.913Z,73.25
2023-04-30T04:09:52.918Z,73.13
2023-04-30T04:12:14.805Z,73.18
2023-04-30T04:14:36.667Z,73.33
2023-04-30T04:17:00.077Z,72.94
2023-04-30T04:19:22.397Z,73.14
2023-04-30T04:21:44.297Z,73.11
2023-04-30T04:24:10.245Z,73.32
2023-04-30T04:26:31.936Z,72.86
2023-04-30T04:28:53.927Z,73.30
2023-04-30T04:31:15.932Z,73.36
2023-04-30T04:33:37.700Z,72.86
2023-04-30T04:35:59.674Z,73.50
2023-04-30T04:38:21.564Z,73.83
2023-04-30T04:40:54.581Z,73.79
2023-04-30T04:43:17.552Z,73.38
2023-04-30T04:45:40.741Z,73.78
2023-04-30T04:48:03.049Z,73.92
2023-04-30T04:50:24.937Z,73.74
2023-04-30T04:52:46.748Z,73.24
2023-04-30T04:55:09.662Z,73.34
2023-04-30T04:57:31.681Z,73.50
2023-04-30T04:59:53.918Z,73.90
2023-04-30T05:02:15.895Z,73.83
2023-04-30T05:04:37.634Z,73.69
2023-04-30T05:06:59.298Z,73.60
2023-04-30T05:09:21.054Z,73.93
2023-04-30T05:11:43.846Z,73.82
2023-04-30T05:14:05.950Z,73.76
2023-04-30T05:16:27.878Z,74.01
2023-04-30T05:18:50.151Z,74.04
2023-04-30T05:21:11.837Z,74.12
2023-04-30T05:23:33.568Z,74.02
2023-04-30T05:25:55.536Z,73.65
2023-04-30T05:28:17.465Z,74.23
2023-04-30T05:30:39.296Z,74.20
2023-04-30T05:33:01.141Z,74.44
2023-04-30T05:35:23.053Z,74.64
2023-04-30T05:37:45.738Z,74.95
2023-04-30T05:40:08.709Z,75.19
2023-04-30T05:42:30.470Z,75.05
2023-04-30T05:44:52.126Z,75.04
2023-04-30T05:47:13.783Z,75.03
2023-04-30T05:49:36.245Z,75.10
2023-04-30T05:51:58.369Z,74.92
2023-04-30T05:54:20.122Z,75.09
2023-04-30T05:56:41.918Z,74.84
2023-04-30T05:59:03.585Z,75.01
2023-04-30T06:01:25.390Z,75.15
2023-04-30T06:03:47.368Z,74.85
2023-04-30T06:06:09.318Z,74.44
2023-04-30T06:08:31.092Z,74.67
2023-04-30T06:10:52.976Z,74.71
2023-04-30T06:13:15.249Z,74.63
2023-04-30T06:15:37.205Z,74.29
2023-04-30T06:17:59.222Z,74.29
2023-04-30T06:20:21.004Z,74.17
2023-04-30T06:22:43.050Z,73.91
2023-04-30T06:25:05.578Z,73.62
2023-04-30T06:27:32.317Z,73.10
2023-04-30T06:29:54.699Z,73.08
2023-04-30T06:32:16.896Z,72.97
2023-04-30T06:34:38.957Z,72.68
2023-04-30T06:37:01.026Z,72.59
2023-04-30T06:39:23.199Z,72.35
2023-04-30T06:41:45.057Z,72.09
2023-04-30T06:44:06.832Z,71.85
2023-04-30T06:46:29.507Z,71.49
2023-04-30T06:48:51.680Z,71.02
2023-04-30T06:51:13.366Z,70.33
2023-04-30T06:53:35.315Z,70.03
2023-04-30T06:55:57.151Z,69.79
2023-04-30T06:58:19.922Z,69.28
2023-04-30T07:00:42.461Z,68.23
2023-04-30T07:03:04.983Z,67.83
2023-04-30T07:05:27.151Z,68.05
2023-04-30T07:07:49.222Z,67.63
2023-04-30T07:10:11.020Z,67.53
2023-04-30T07:12:33.009Z,66.50
2023-04-30T07:14:55.345Z,66.29
2023-04-30T07:17:17.503Z,66.51
2023-04-30T07:19:39.302Z,66.26
2023-04-30T07:22:01.255Z,66.04
2023-04-30T07:24:23.061Z,65.47
2023-04-30T07:26:44.850Z,65.37
2023-04-30T07:29:06.825Z,65.39
2023-04-30T07:31:28.720Z,65.43
2023-04-30T07:33:50.689Z,64.85
2023-04-30T07:36:12.596Z,65.25
2023-04-30T07:38:34.478Z,64.80
2023-04-30T07:40:56.318Z,64.61
2023-04-30T07:43:18.070Z,64.46
2023-04-30T07:45:39.915Z,63.97
2023-04-30T07:48:02.260Z,63.90
2023-04-30T07:50:24.099Z,63.62
2023-04-30T07:52:45.964Z,63.29
2023-04-30T07:55:08.409Z,63.26
2023-04-30T07:57:30.505Z,63.29
2023-04-30T07:59:54.563Z,63.24
2023-04-30T08:02:16.622Z,62.14
2023-04-30T08:04:38.388Z,61.98
2023-04-30T08:07:00.487Z,61.65
2023-04-30T08:09:22.435Z,61.72
2023-04-30T08:11:44.366Z,61.34
2023-04-30T08:14:07.048Z,61.62
2023-04-30T08:16:29.011Z,60.92
2023-04-30T08:18:50.888Z,61.07
2023-04-30T08:21:13.695Z,61.12
2023-04-30T08:23:35.417Z,60.67
2023-04-30T08:25:57.388Z,59.66
2023-04-30T08:28:19.303Z,59.76
2023-04-30T08:30:41.170Z,59.23
2023-04-30T08:33:03.159Z,59.70
2023-04-30T08:35:25.029Z,59.94
2023-04-30T08:37:46.732Z,58.98
2023-04-30T08:40:12.322Z,59.04
2023-04-30T08:42:38.116Z,58.91
2023-04-30T08:45:01.761Z,58.30
2023-04-30T08:47:24.550Z,56.81
2023-04-30T08:49:47.403Z,57.19
2023-04-30T08:52:09.800Z,57.10
2023-04-30T08:54:33.219Z,57.60
2023-04-30T08:56:55.502Z,57.93
2023-04-30T08:59:17.298Z,56.34
2023-04-30T09:01:39.190Z,56.27
2023-04-30T09:04:04.612Z,55.92
2023-04-30T09:06:27.398Z,56.42
2023-04-30T09:08:50.303Z,56.44
2023-04-30T09:11:25.366Z,56.34
2023-04-30T09:13:47.107Z,56.21
2023-04-30T09:16:09.668Z,55.15
2023-04-30T09:18:40.668Z,54.22
2023-04-30T09:21:03.684Z,54.16
2023-04-30T09:23:26.213Z,54.50
2023-04-30T09:25:48.125Z,54.07
2023-04-30T09:28:12.354Z,53.14
2023-04-30T09:30:34.923Z,52.74
2023-04-30T09:32:57.051Z,52.47
2023-04-30T09:35:34.309Z,53.06
2023-04-30T09:37:56.442Z,53.20
2023-04-30T09:40:18.442Z,52.85
2023-04-30T09:42:40.924Z,52.91
2023-04-30T09:45:05.697Z,53.13
2023-04-30T09:47:31.699Z,53.01
2023-04-30T09:49:53.946Z,52.18
2023-04-30T09:52:16.261Z,51.82
2023-04-30T09:54:38.654Z,51.58
2023-04-30T09:57:03.232Z,50.75
2023-04-30T09:59:36.768Z,50.73
2023-04-30T10:02:04.255Z,51.04
2023-04-30T10:04:33.908Z,51.37
2023-04-30T10:06:59.281Z,50.17
2023-04-30T10:09:24.317Z,48.85
2023-04-30T10:11:47.622Z,47.63
2023-04-30T10:14:14.776Z,48.40
2023-04-30T10:16:53.933Z,48.30
2023-04-30T10:19:26.094Z,47.99
2023-04-30T10:21:48.227Z,48.67
2023-04-30T10:24:13.938Z,48.42
2023-04-30T10:26:36.216Z,48.89
2023-04-30T10:29:01.352Z,48.52
2023-04-30T10:31:24.509Z,47.58
2023-04-30T10:34:35.809Z,47.31
2023-04-30T10:37:12.988Z,48.15
2023-04-30T10:39:37.557Z,47.52
2023-04-30T10:42:05.583Z,46.80
2023-04-30T10:44:27.563Z,46.04
2023-04-30T10:46:49.481Z,45.58
2023-04-30T10:49:12.160Z,45.56
2023-04-30T10:51:51.982Z,45.93
2023-04-30T10:54:25.292Z,45.29
2023-04-30T10:56:47.556Z,45.13
2023-04-30T10:59:09.373Z,45.13
2023-04-30T11:01:31.283Z,44.58
2023-04-30T11:04:11.443Z,44.63
2023-04-30T11:07:10.086Z,45.36
2023-04-30T11:09:48.515Z,45.26
2023-04-30T11:12:15.747Z,46.05
2023-04-30T11:14:43.368Z,45.79
2023-04-30T11:17:05.291Z,46.31
2023-04-30T11:19:29.828Z,46.13
2023-04-30T11:22:03.656Z,46.47
2023-04-30T11:25:00.444Z,46.52
2023-04-30T11:27:27.842Z,46.16
2023-04-30T11:29:54.058Z,45.54
2023-04-30T11:32:18.247Z,45.28
2023-04-30T11:34:43.139Z,44.60
2023-04-30T11:37:06.126Z,44.15
2023-04-30T11:39:29.694Z,44.66
2023-04-30T11:41:51.419Z,44.54
2023-04-30T11:44:29.182Z,44.34
2023-04-30T11:46:51.604Z,44.76
2023-04-30T11:49:13.369Z,44.09
2023-04-30T11:51:36.628Z,44.13
2023-04-30T11:53:58.282Z,44.42
2023-04-30T11:56:25.413Z,44.45
2023-04-30T11:58:49.003Z,43.92
2023-04-30T12:01:11.838Z,44.25
2023-04-30T12:03:40.300Z,44.50
2023-04-30T12:06:02.539Z,44.23
2023-04-30T12:08:24.355Z,44.29
2023-04-30T12:10:46.157Z,43.20
2023-04-30T12:13:07.951Z,43.27
2023-04-30T12:15:30.093Z,43.47
2023-04-30T12:17:53.603Z,43.96
2023-04-30T12:20:16.362Z,44.30
2023-04-30T12:22:38.421Z,45.12
2023-04-30T12:25:01.685Z,44.34
2023-04-30T12:27:23.762Z,45.16
2023-04-30T12:29:47.425Z,45.47
2023-04-30T12:32:09.255Z,45.35
2023-04-30T12:34:33.689Z,45.64
2023-04-30T12:36:58.265Z,45.86
2023-04-30T12:39:20.379Z,44.88
2023-04-30T12:41:45.924Z,44.74
2023-04-30T12:44:21.116Z,44.67
2023-04-30T12:46:43.741Z,44.58
2023-04-30T12:49:05.729Z,44.34
2023-04-30T12:51:27.986Z,45.38
2023-04-30T12:53:49.842Z,45.40
2023-04-30T12:56:15.909Z,45.11
2023-04-30T12:58:39.354Z,43.95
2023-04-30T13:01:01.803Z,43.16
2023-04-30T13:03:23.652Z,42.91
2023-04-30T13:05:51.834Z,42.12
2023-04-30T13:08:14.464Z,41.84
2023-04-30T13:10:36.231Z,41.69
2023-04-30T13:12:58.298Z,41.65
2023-04-30T13:15:20.245Z,41.87
2023-04-30T13:17:42.054Z,42.10
2023-04-30T13:20:04.361Z,41.12
2023-04-30T13:22:29.765Z,41.48
2023-04-30T13:24:51.535Z,41.43
2023-04-30T13:27:13.434Z,42.45
2023-04-30T13:29:35.339Z,42.46
2023-04-30T13:31:57.143Z,42.52
2023-04-30T13:34:18.882Z,42.38
2023-04-30T13:36:40.800Z,42.13
2023-04-30T13:39:04.498Z,41.34
2023-04-30T13:41:27.326Z,40.83
2023-04-30T13:43:50.016Z,40.72
2023-04-30T13:46:12.513Z,40.78
2023-04-30T13:48:34.522Z,39.98
2023-04-30T13:50:56.749Z,39.83
2023-04-30T13:53:19.502Z,39.49
2023-04-30T13:55:41.321Z,39.16
2023-04-30T13:58:03.704Z,39.46
2023-04-30T14:00:26.968Z,39.22
2023-04-30T14:02:49.180Z,39.35
2023-04-30T14:05:11.240Z,39.07
2023-04-30T14:07:33.133Z,39.10
2023-04-30T14:09:55.044Z,39.17
2023-04-30T14:12:18.425Z,39.22
2023-04-30T14:14:40.560Z,38.79
2023-04-30T14:17:02.708Z,39.45
2023-04-30T14:19:24.939Z,39.49
2023-04-30T14:21:46.912Z,39.07
2023-04-30T14:24:12.535Z,38.41
2023-04-30T14:26:34.629Z,38.67
2023-04-30T14:28:57.929Z,37.82
2023-04-30T14:31:19.632Z,38.00
2023-04-30T14:33:41.615Z,38.28
2023-04-30T14:36:03.653Z,38.46
2023-04-30T14:38:25.898Z,38.45
2023-04-30T14:40:49.186Z,38.34
2023-04-30T14:43:11.610Z,37.88
2023-04-30T14:45:34.537Z,37.95
2023-04-30T14:47:56.551Z,36.83
2023-04-30T14:50:18.385Z,36.38
2023-04-30T14:52:40.509Z,36.44
2023-04-30T14:55:03.614Z,36.55
2023-04-30T14:57:25.770Z,36.49
2023-04-30T14:59:47.598Z,36.63
2023-04-30T15:02:09.637Z,36.75
2023-04-30T15:04:32.016Z,36.74
2023-04-30T15:06:54.005Z,37.50
2023-04-30T15:09:15.938Z,37.63
2023-04-30T15:11:37.660Z,36.60
2023-04-30T15:13:59.411Z,36.85
2023-04-30T15:16:21.921Z,37.22
2023-04-30T15:18:44.717Z,37.63
2023-04-30T15:21:06.868Z,37.67
2023-04-30T15:23:30.023Z,37.94
2023-04-30T15:25:51.973Z,37.40
2023-04-30T15:28:14.021Z,37.23
2023-04-30T15:30:36.543Z,37.38
2023-04-30T15:32:58.398Z,37.81
2023-04-30T15:35:20.123Z,37.77
2023-04-30T15:37:41.967Z,37.91
2023-04-30T15:40:08.475Z,37.25
2023-04-30T15:42:30.912Z,37.01
2023-04-30T15:44:52.961Z,36.65
2023-04-30T15:47:15.074Z,37.04
2023-04-30T15:49:37.073Z,37.34
2023-04-30T15:51:58.866Z,37.44
2023-04-30T15:54:21.044Z,37.57
2023-04-30T15:56:43.191Z,37.74
2023-04-30T15:59:05.503Z,37.80
2023-04-30T16:01:27.665Z,37.47
2023-04-30T16:03:49.992Z,37.64
2023-04-30T16:06:11.976Z,37.79
2023-04-30T16:08:34.156Z,37.98
2023-04-30T16:10:56.366Z,38.13
2023-04-30T16:13:18.112Z,37.42
2023-04-30T16:15:39.735Z,37.42
2023-04-30T16:18:01.990Z,37.68
2023-04-30T16:20:24.664Z,38.00
2023-04-30T16:22:47.663Z,37.76
2023-04-30T16:25:10.256Z,37.60
2023-04-30T16:27:32.314Z,37.35
2023-04-30T16:29:54.138Z,37.04
2023-04-30T16:32:16.304Z,37.04
2023-04-30T16:34:38.054Z,37.40
2023-04-30T16:36:59.743Z,37.28
2023-04-30T16:39:21.450Z,36.91
2023-04-30T16:41:43.095Z,37.06
2023-04-30T16:44:05.923Z,37.02
2023-04-30T16:46:28.376Z,37.68
2023-04-30T16:48:50.188Z,38.38
2023-04-30T16:51:11.972Z,38.02
2023-04-30T16:53:34.096Z,37.76
2023-04-30T16:55:55.726Z,37.65
2023-04-30T16:58:17.472Z,37.68
2023-04-30T17:00:39.470Z,37.79
2023-04-30T17:03:01.154Z,38.41
2023-04-30T17:05:23.452Z,38.87
2023-04-30T17:07:45.786Z,38.59
2023-04-30T17:10:08.649Z,38.42
2023-04-30T17:12:30.444Z,38.79
2023-04-30T17:14:52.151Z,38.90
2023-04-30T17:17:14.513Z,38.77
2023-04-30T17:19:36.251Z,38.88
2023-04-30T17:21:57.939Z,38.65
2023-04-30T17:24:19.588Z,38.70
2023-04-30T17:26:41.478Z,38.71
2023-04-30T17:29:03.158Z,39.10
2023-04-30T17:31:26.021Z,39.56
2023-04-30T17:33:48.522Z,39.60
2023-04-30T17:36:10.229Z,39.85
2023-04-30T17:38:32.215Z,40.17
2023-04-30T17:40:54.287Z,40.22
2023-04-30T17:43:16.078Z,40.20
2023-04-30T17:45:37.721Z,40.36
2023-04-30T17:47:59.416Z,40.73
2023-04-30T17:50:21.196Z,40.89
2023-04-30T17:52:43.047Z,41.20
2023-04-30T17:55:09.301Z,41.35
2023-04-30T17:57:31.098Z,41.33
2023-04-30T17:59:52.803Z,41.61
2023-04-30T18:02:14.740Z,41.60
2023-04-30T18:04:36.770Z,41.85
2023-04-30T18:06:58.579Z,42.18
2023-04-30T18:09:20.323Z,42.15
2023-04-30T18:11:42.418Z,42.35
2023-04-30T18:14:07.510Z,42.78
2023-04-30T18:16:29.220Z,42.80
2023-04-30T18:18:51.005Z,43.29
2023-04-30T18:21:13.572Z,43.33
2023-04-30T18:23:35.187Z,43.57
2023-04-30T18:25:56.887Z,43.86
2023-04-30T18:28:18.778Z,43.95
2023-04-30T18:30:40.942Z,44.16
2023-04-30T18:33:04.809Z,44.34
2023-04-30T18:35:28.015Z,44.58
2023-04-30T18:37:49.782Z,44.87
2023-04-30T18:40:11.706Z,45.09
2023-04-30T18:42:34.697Z,45.30
2023-04-30T18:44:57.262Z,45.38
2023-04-30T18:47:19.194Z,45.85
2023-04-30T18:49:41.416Z,45.73
2023-04-30T18:52:03.132Z,45.70
2023-04-30T18:54:24.825Z,46.26
2023-04-30T18:56:47.112Z,46.25
2023-04-30T18:59:08.985Z,46.42
2023-04-30T19:01:31.843Z,46.69
2023-04-30T19:03:53.630Z,47.09
2023-04-30T19:06:15.664Z,47.10
2023-04-30T19:08:37.437Z,47.29
2023-04-30T19:10:59.092Z,47.64
2023-04-30T19:13:20.769Z,47.60
2023-04-30T19:15:43.653Z,47.88
2023-04-30T19:18:05.304Z,48.26
2023-04-30T19:20:26.953Z,48.49
2023-04-30T19:22:50.409Z,48.74
2023-04-30T19:25:12.418Z,48.88
2023-04-30T19:27:34.048Z,48.87
2023-04-30T19:29:57.818Z,48.87
2023-04-30T19:32:20.892Z,49.03
2023-04-30T19:34:42.638Z,49.16
2023-04-30T19:37:04.280Z,49.42
2023-04-30T19:39:31.521Z,49.24
2023-04-30T19:41:53.179Z,49.23
2023-04-30T19:44:17.712Z,49.12
2023-04-30T19:46:39.435Z,49.09
2023-04-30T19:49:01.166Z,49.60
2023-04-30T19:51:22.885Z,49.58
2023-04-30T19:53:44.997Z,49.69
2023-04-30T19:56:07.247Z,49.70
2023-04-30T19:58:28.973Z,49.95
2023-04-30T20:00:50.695Z,50.06
2023-04-30T20:03:14.880Z,50.12
2023-04-30T20:05:39.281Z,50.35
2023-04-30T20:08:06.626Z,50.30
2023-04-30T20:10:28.220Z,50.46
2023-04-30T20:12:54.308Z,50.71
2023-04-30T20:15:16.208Z,50.83
2023-04-30T20:17:37.877Z,50.93
2023-04-30T20:20:00.271Z,51.19
2023-04-30T20:22:21.987Z,51.28
2023-04-30T20:24:44.646Z,51.18
2023-04-30T20:27:07.395Z,51.56
2023-04-30T20:29:29.411Z,51.77
2023-04-30T20:31:51.835Z,51.90
2023-04-30T20:34:13.526Z,51.84
2023-04-30T20:36:35.920Z,51.92
2023-04-30T20:38:58.856Z,52.28
2023-04-30T20:41:21.335Z,52.68
2023-04-30T20:43:42.970Z,52.68
2023-04-30T20:46:04.988Z,52.65
2023-04-30T20:48:27.068Z,53.00
2023-04-30T20:50:48.740Z,52.62
2023-04-30T20:53:11.692Z,52.73
2023-04-30T20:55:33.897Z,52.74
2023-04-30T20:57:55.553Z,52.70
2023-04-30T21:00:17.606Z,52.51
2023-04-30T21:02:39.497Z,52.81
2023-04-30T21:05:06.080Z,52.67
2023-04-30T21:07:28.035Z,53.05
2023-04-30T21:09:50.782Z,52.73
2023-04-30T21:12:12.974Z,52.90
2023-04-30T21:14:35.537Z,53.17
2023-04-30T21:16:57.317Z,52.87
2023-04-30T21:19:18.996Z,53.19
2023-04-30T21:21:41.132Z,53.21
2023-04-30T21:24:03.937Z,53.15
2023-04-30T21:26:25.630Z,53.43
2023-04-30T21:28:48.339Z,53.49
2023-04-30T21:31:10.306Z,53.67
2023-04-30T21:33:32.280Z,53.85
2023-04-30T21:35:53.907Z,53.78
2023-04-30T21:38:16.353Z,54.02
2023-04-30T21:40:38.306Z,53.68
2023-04-30T21:43:01.246Z,53.96
2023-04-30T21:45:22.995Z,54.20
2023-04-30T21:47:47.922Z,53.83
2023-04-30T21:50:10.408Z,53.78
2023-04-30T21:52:32.168Z,53.86
2023-04-30T21:54:53.852Z,53.90
2023-04-30T21:57:15.932Z,54.08
2023-04-30T21:59:37.559Z,54.20
2023-04-30T22:02:01.504Z,54.14
2023-04-30T22:04:26.244Z,54.45
2023-04-30T22:06:48.135Z,54.50
2023-04-30T22:09:10.601Z,54.58
2023-04-30T22:11:32.237Z,54.63
2023-04-30T22:13:54.014Z,54.64
2023-04-30T22:16:15.764Z,54.74
2023-04-30T22:18:37.556Z,54.90
2023-04-30T22:21:00.498Z,54.93
2023-04-30T22:23:22.167Z,55.28
2023-04-30T22:25:44.182Z,54.86
2023-04-30T22:28:05.905Z,55.05
2023-04-30T22:30:27.590Z,54.97
2023-04-30T22:32:49.352Z,55.18
2023-04-30T22:35:11.673Z,55.21
2023-04-30T22:37:33.378Z,55.28
2023-04-30T22:39:55.261Z,55.10
2023-04-30T22:42:17.340Z,55.24
2023-04-30T22:44:38.997Z,55.60
2023-04-30T22:47:02.472Z,55.57
2023-04-30T22:49:31.035Z,55.49
2023-04-30T22:51:53.642Z,55.71
2023-04-30T22:54:15.493Z,56.05
2023-04-30T22:56:40.733Z,55.66
2023-04-30T22:59:02.497Z,55.91
2023-04-30T23:01:24.208Z,55.91
2023-04-30T23:03:46.004Z,55.78
2023-04-30T23:06:07.774Z,55.87
2023-04-30T23:08:29.523Z,55.64
2023-04-30T23:10:53.074Z,56.15
2023-04-30T23:13:15.139Z,56.11
2023-04-30T23:15:36.773Z,55.97
2023-04-30T23:18:00.345Z,55.98
2023-04-30T23:20:22.718Z,56.24
2023-04-30T23:22:44.584Z,56.24
2023-04-30T23:25:07.018Z,56.43
2023-04-30T23:27:29.539Z,56.38
2023-04-30T23:29:51.242Z,56.79
2023-04-30T23:32:12.961Z,56.71
2023-04-30T23:34:35.027Z,57.22
2023-04-30T23:36:56.657Z,57.44
2023-04-30T23:39:18.374Z,57.21
2023-04-30T23:41:40.066Z,56.75
2023-04-30T23:44:01.804Z,56.94
2023-04-30T23:46:24.871Z,56.90
2023-04-30T23:48:46.720Z,57.20
2023-04-30T23:51:09.124Z,57.21
2023-04-30T23:53:32.130Z,57.74
2023-04-30T23:55:59.049Z,57.77
2023-04-30T23:58:20.694Z,57.31
